sensor_id;sensor_type;location;lat;lon;timestamp;P1;durP1;ratioP1;P2;durP2;ratioP2
57643;SDS011;43474;46.510;6.686;2024-02-04T00:00:49;10.00;;;4.68;;
57643;SDS011;43474;46.510;6.686;2024-02-04T00:03:34;7.50;;;4.57;;
57643;SDS011;43474;46.510;6.686;2024-02-04T00:06:00;15.30;;;6.45;;
57643;SDS011;43474;46.510;6.686;2024-02-04T00:08:26;19.27;;;5.22;;
57643;SDS011;43474;46.510;6.686;2024-02-04T00:10:52;13.93;;;4.40;;
57643;SDS011;43474;46.510;6.686;2024-02-04T00:13:17;6.47;;;3.03;;
57643;SDS011;43474;46.510;6.686;2024-02-04T00:15:43;9.75;;;4.70;;
57643;SDS011;43474;46.510;6.686;2024-02-04T00:18:09;10.77;;;5.55;;
57643;SDS011;43474;46.510;6.686;2024-02-04T00:20:35;6.60;;;3.70;;
57643;SDS011;43474;46.510;6.686;2024-02-04T00:23:01;6.95;;;3.63;;
57643;SDS011;43474;46.510;6.686;2024-02-04T00:25:27;10.13;;;4.70;;
57643;SDS011;43474;46.510;6.686;2024-02-04T00:27:54;8.88;;;5.97;;
57643;SDS011;43474;46.510;6.686;2024-02-04T00:30:20;9.98;;;6.43;;
57643;SDS011;43474;46.510;6.686;2024-02-04T00:32:45;12.63;;;6.03;;
57643;SDS011;43474;46.510;6.686;2024-02-04T00:35:11;7.57;;;4.18;;
57643;SDS011;43474;46.510;6.686;2024-02-04T00:37:37;9.93;;;4.03;;
57643;SDS011;43474;46.510;6.686;2024-02-04T00:40:03;7.07;;;4.28;;
57643;SDS011;43474;46.510;6.686;2024-02-04T00:42:30;5.68;;;2.85;;
57643;SDS011;43474;46.510;6.686;2024-02-04T00:44:56;8.73;;;4.00;;
57643;SDS011;43474;46.510;6.686;2024-02-04T00:47:22;7.57;;;3.70;;
57643;SDS011;43474;46.510;6.686;2024-02-04T00:49:48;6.68;;;3.28;;
57643;SDS011;43474;46.510;6.686;2024-02-04T00:52:13;5.78;;;2.88;;
57643;SDS011;43474;46.510;6.686;2024-02-04T00:54:39;11.00;;;3.10;;
57643;SDS011;43474;46.510;6.686;2024-02-04T00:57:05;6.72;;;2.85;;
57643;SDS011;43474;46.510;6.686;2024-02-04T00:59:31;4.38;;;2.50;;
57643;SDS011;43474;46.510;6.686;2024-02-04T01:01:57;4.35;;;2.55;;
57643;SDS011;43474;46.510;6.686;2024-02-04T01:04:24;5.22;;;3.15;;
57643;SDS011;43474;46.510;6.686;2024-02-04T01:06:50;6.00;;;2.53;;
57643;SDS011;43474;46.510;6.686;2024-02-04T01:09:16;7.20;;;2.60;;
57643;SDS011;43474;46.510;6.686;2024-02-04T01:11:43;3.15;;;2.75;;
57643;SDS011;43474;46.510;6.686;2024-02-04T01:14:10;3.58;;;2.33;;
57643;SDS011;43474;46.510;6.686;2024-02-04T01:16:36;12.23;;;2.75;;
57643;SDS011;43474;46.510;6.686;2024-02-04T01:19:02;6.70;;;2.92;;
57643;SDS011;43474;46.510;6.686;2024-02-04T01:21:28;6.25;;;2.47;;
57643;SDS011;43474;46.510;6.686;2024-02-04T01:23:54;5.25;;;3.00;;
57643;SDS011;43474;46.510;6.686;2024-02-04T01:26:20;6.65;;;2.15;;
57643;SDS011;43474;46.510;6.686;2024-02-04T01:28:46;12.52;;;2.65;;
57643;SDS011;43474;46.510;6.686;2024-02-04T01:31:11;5.55;;;3.08;;
57643;SDS011;43474;46.510;6.686;2024-02-04T01:33:37;5.18;;;2.88;;
57643;SDS011;43474;46.510;6.686;2024-02-04T01:36:03;2.90;;;2.22;;
57643;SDS011;43474;46.510;6.686;2024-02-04T01:38:29;4.03;;;2.53;;
57643;SDS011;43474;46.510;6.686;2024-02-04T01:40:55;3.42;;;2.22;;
57643;SDS011;43474;46.510;6.686;2024-02-04T01:43:21;4.70;;;2.72;;
57643;SDS011;43474;46.510;6.686;2024-02-04T01:45:48;4.50;;;2.80;;
57643;SDS011;43474;46.510;6.686;2024-02-04T01:48:21;5.05;;;2.38;;
57643;SDS011;43474;46.510;6.686;2024-02-04T01:50:47;5.07;;;3.83;;
57643;SDS011;43474;46.510;6.686;2024-02-04T01:53:17;5.82;;;2.97;;
57643;SDS011;43474;46.510;6.686;2024-02-04T01:55:43;5.68;;;2.70;;
57643;SDS011;43474;46.510;6.686;2024-02-04T01:58:12;5.85;;;3.45;;
57643;SDS011;43474;46.510;6.686;2024-02-04T02:00:38;8.30;;;3.40;;
57643;SDS011;43474;46.510;6.686;2024-02-04T02:03:05;3.40;;;2.58;;
57643;SDS011;43474;46.510;6.686;2024-02-04T02:05:32;7.78;;;2.47;;
57643;SDS011;43474;46.510;6.686;2024-02-04T02:07:58;5.40;;;2.83;;
57643;SDS011;43474;46.510;6.686;2024-02-04T02:10:27;3.75;;;2.55;;
57643;SDS011;43474;46.510;6.686;2024-02-04T02:12:56;4.03;;;3.47;;
57643;SDS011;43474;46.510;6.686;2024-02-04T02:15:34;5.70;;;3.35;;
57643;SDS011;43474;46.510;6.686;2024-02-04T02:24:10;6.43;;;3.45;;
57643;SDS011;43474;46.510;6.686;2024-02-04T02:26:41;4.63;;;3.05;;
57643;SDS011;43474;46.510;6.686;2024-02-04T02:29:09;4.30;;;3.72;;
57643;SDS011;43474;46.510;6.686;2024-02-04T02:31:35;5.80;;;3.13;;
57643;SDS011;43474;46.510;6.686;2024-02-04T02:34:02;5.43;;;3.90;;
57643;SDS011;43474;46.510;6.686;2024-02-04T02:36:28;5.30;;;3.83;;
57643;SDS011;43474;46.510;6.686;2024-02-04T02:39:07;6.55;;;4.25;;
57643;SDS011;43474;46.510;6.686;2024-02-04T02:41:38;6.90;;;4.57;;
57643;SDS011;43474;46.510;6.686;2024-02-04T02:44:08;8.68;;;3.42;;
57643;SDS011;43474;46.510;6.686;2024-02-04T02:46:35;5.38;;;3.05;;
57643;SDS011;43474;46.510;6.686;2024-02-04T02:49:05;7.53;;;3.97;;
57643;SDS011;43474;46.510;6.686;2024-02-04T02:51:31;6.70;;;4.10;;
57643;SDS011;43474;46.510;6.686;2024-02-04T02:54:02;8.07;;;5.15;;
57643;SDS011;43474;46.510;6.686;2024-02-04T02:56:30;11.48;;;6.60;;
57643;SDS011;43474;46.510;6.686;2024-02-04T02:58:55;11.18;;;4.47;;
57643;SDS011;43474;46.510;6.686;2024-02-04T03:01:21;4.63;;;3.47;;
57643;SDS011;43474;46.510;6.686;2024-02-04T03:03:49;12.05;;;5.10;;
57643;SDS011;43474;46.510;6.686;2024-02-04T03:06:15;4.10;;;3.40;;
57643;SDS011;43474;46.510;6.686;2024-02-04T03:08:45;9.52;;;5.78;;
57643;SDS011;43474;46.510;6.686;2024-02-04T03:11:10;10.13;;;4.97;;
57643;SDS011;43474;46.510;6.686;2024-02-04T03:13:39;8.15;;;3.30;;
57643;SDS011;43474;46.510;6.686;2024-02-04T03:16:12;5.35;;;3.88;;
57643;SDS011;43474;46.510;6.686;2024-02-04T03:18:41;5.53;;;3.45;;
57643;SDS011;43474;46.510;6.686;2024-02-04T03:21:13;6.72;;;4.72;;
57643;SDS011;43474;46.510;6.686;2024-02-04T03:23:42;6.78;;;3.63;;
57643;SDS011;43474;46.510;6.686;2024-02-04T03:26:09;5.88;;;4.65;;
57643;SDS011;43474;46.510;6.686;2024-02-04T03:28:35;2.55;;;2.22;;
57643;SDS011;43474;46.510;6.686;2024-02-04T03:31:01;11.30;;;4.10;;
57643;SDS011;43474;46.510;6.686;2024-02-04T03:33:28;7.70;;;5.65;;
57643;SDS011;43474;46.510;6.686;2024-02-04T03:35:54;12.00;;;4.90;;
57643;SDS011;43474;46.510;6.686;2024-02-04T03:38:20;6.72;;;4.57;;
57643;SDS011;43474;46.510;6.686;2024-02-04T03:40:46;9.63;;;5.13;;
57643;SDS011;43474;46.510;6.686;2024-02-04T03:43:15;8.95;;;4.88;;
57643;SDS011;43474;46.510;6.686;2024-02-04T03:45:41;8.77;;;5.15;;
57643;SDS011;43474;46.510;6.686;2024-02-04T03:48:08;10.07;;;4.78;;
57643;SDS011;43474;46.510;6.686;2024-02-04T03:50:35;10.10;;;4.75;;
57643;SDS011;43474;46.510;6.686;2024-02-04T03:53:02;9.75;;;4.78;;
57643;SDS011;43474;46.510;6.686;2024-02-04T03:55:28;8.00;;;3.45;;
57643;SDS011;43474;46.510;6.686;2024-02-04T03:57:54;9.00;;;4.53;;
57643;SDS011;43474;46.510;6.686;2024-02-04T04:00:20;10.48;;;5.15;;
57643;SDS011;43474;46.510;6.686;2024-02-04T04:02:46;8.55;;;3.15;;
57643;SDS011;43474;46.510;6.686;2024-02-04T04:05:12;9.88;;;5.20;;
57643;SDS011;43474;46.510;6.686;2024-02-04T04:07:38;5.57;;;3.47;;
57643;SDS011;43474;46.510;6.686;2024-02-04T04:10:05;5.43;;;4.13;;
57643;SDS011;43474;46.510;6.686;2024-02-04T04:12:31;12.88;;;4.13;;
57643;SDS011;43474;46.510;6.686;2024-02-04T04:14:57;7.18;;;3.78;;
57643;SDS011;43474;46.510;6.686;2024-02-04T04:17:23;7.35;;;4.10;;
57643;SDS011;43474;46.510;6.686;2024-02-04T04:19:49;9.60;;;4.22;;
57643;SDS011;43474;46.510;6.686;2024-02-04T04:22:16;7.95;;;4.63;;
57643;SDS011;43474;46.510;6.686;2024-02-04T04:24:42;14.93;;;3.55;;
57643;SDS011;43474;46.510;6.686;2024-02-04T04:27:08;13.38;;;4.70;;
57643;SDS011;43474;46.510;6.686;2024-02-04T04:29:34;8.50;;;5.45;;
57643;SDS011;43474;46.510;6.686;2024-02-04T04:32:00;7.00;;;4.90;;
57643;SDS011;43474;46.510;6.686;2024-02-04T04:34:26;8.00;;;4.55;;
57643;SDS011;43474;46.510;6.686;2024-02-04T04:36:52;7.18;;;4.85;;
57643;SDS011;43474;46.510;6.686;2024-02-04T04:39:18;5.97;;;4.40;;
57643;SDS011;43474;46.510;6.686;2024-02-04T04:41:44;4.70;;;3.63;;
57643;SDS011;43474;46.510;6.686;2024-02-04T04:44:10;5.63;;;4.45;;
57643;SDS011;43474;46.510;6.686;2024-02-04T04:46:39;6.18;;;4.22;;
57643;SDS011;43474;46.510;6.686;2024-02-04T04:49:07;5.05;;;3.25;;
57643;SDS011;43474;46.510;6.686;2024-02-04T04:51:33;6.47;;;3.97;;
57643;SDS011;43474;46.510;6.686;2024-02-04T04:53:59;7.10;;;2.88;;
57643;SDS011;43474;46.510;6.686;2024-02-04T04:56:25;4.82;;;4.35;;
57643;SDS011;43474;46.510;6.686;2024-02-04T04:58:50;9.70;;;6.43;;
57643;SDS011;43474;46.510;6.686;2024-02-04T05:01:16;6.95;;;4.25;;
57643;SDS011;43474;46.510;6.686;2024-02-04T05:03:42;14.13;;;5.10;;
57643;SDS011;43474;46.510;6.686;2024-02-04T05:06:09;5.78;;;3.90;;
57643;SDS011;43474;46.510;6.686;2024-02-04T05:08:37;6.00;;;4.20;;
57643;SDS011;43474;46.510;6.686;2024-02-04T05:11:03;5.80;;;4.00;;
57643;SDS011;43474;46.510;6.686;2024-02-04T05:13:29;5.95;;;3.65;;
57643;SDS011;43474;46.510;6.686;2024-02-04T05:15:55;9.38;;;5.10;;
57643;SDS011;43474;46.510;6.686;2024-02-04T05:18:21;8.45;;;3.97;;
57643;SDS011;43474;46.510;6.686;2024-02-04T05:20:47;5.85;;;3.65;;
57643;SDS011;43474;46.510;6.686;2024-02-04T05:23:13;8.40;;;4.25;;
57643;SDS011;43474;46.510;6.686;2024-02-04T05:25:39;6.05;;;4.03;;
57643;SDS011;43474;46.510;6.686;2024-02-04T05:28:08;10.55;;;4.50;;
57643;SDS011;43474;46.510;6.686;2024-02-04T05:30:35;6.45;;;4.05;;
57643;SDS011;43474;46.510;6.686;2024-02-04T05:33:03;7.75;;;4.47;;
57643;SDS011;43474;46.510;6.686;2024-02-04T05:35:29;4.90;;;3.75;;
57643;SDS011;43474;46.510;6.686;2024-02-04T05:37:55;9.25;;;5.05;;
57643;SDS011;43474;46.510;6.686;2024-02-04T05:40:21;6.53;;;3.30;;
57643;SDS011;43474;46.510;6.686;2024-02-04T05:42:47;7.80;;;4.85;;
57643;SDS011;43474;46.510;6.686;2024-02-04T05:45:13;6.50;;;4.78;;
57643;SDS011;43474;46.510;6.686;2024-02-04T05:47:41;5.35;;;4.07;;
57643;SDS011;43474;46.510;6.686;2024-02-04T05:50:07;10.25;;;5.55;;
57643;SDS011;43474;46.510;6.686;2024-02-04T05:52:42;12.30;;;4.20;;
57643;SDS011;43474;46.510;6.686;2024-02-04T05:55:11;7.43;;;5.82;;
57643;SDS011;43474;46.510;6.686;2024-02-04T05:57:37;11.45;;;5.05;;
57643;SDS011;43474;46.510;6.686;2024-02-04T06:00:04;12.00;;;5.60;;
57643;SDS011;43474;46.510;6.686;2024-02-04T06:02:34;17.15;;;7.90;;
57643;SDS011;43474;46.510;6.686;2024-02-04T06:05:05;14.45;;;7.78;;
57643;SDS011;43474;46.510;6.686;2024-02-04T06:07:33;16.15;;;7.55;;
57643;SDS011;43474;46.510;6.686;2024-02-04T06:10:00;16.95;;;7.22;;
57643;SDS011;43474;46.510;6.686;2024-02-04T06:12:29;16.75;;;8.77;;
57643;SDS011;43474;46.510;6.686;2024-02-04T06:14:56;13.98;;;7.72;;
57643;SDS011;43474;46.510;6.686;2024-02-04T06:17:24;16.10;;;8.80;;
57643;SDS011;43474;46.510;6.686;2024-02-04T06:19:51;14.38;;;8.00;;
57643;SDS011;43474;46.510;6.686;2024-02-04T06:22:22;18.67;;;9.75;;
57643;SDS011;43474;46.510;6.686;2024-02-04T06:24:51;16.98;;;8.73;;
57643;SDS011;43474;46.510;6.686;2024-02-04T06:27:22;21.58;;;9.00;;
57643;SDS011;43474;46.510;6.686;2024-02-04T06:29:56;24.38;;;10.38;;
57643;SDS011;43474;46.510;6.686;2024-02-04T06:32:23;19.73;;;10.32;;
57643;SDS011;43474;46.510;6.686;2024-02-04T06:34:51;25.23;;;11.00;;
57643;SDS011;43474;46.510;6.686;2024-02-04T06:37:17;18.92;;;9.60;;
57643;SDS011;43474;46.510;6.686;2024-02-04T06:39:44;23.45;;;9.35;;
57643;SDS011;43474;46.510;6.686;2024-02-04T06:42:10;16.27;;;8.55;;
57643;SDS011;43474;46.510;6.686;2024-02-04T06:44:37;18.60;;;8.82;;
57643;SDS011;43474;46.510;6.686;2024-02-04T06:47:03;14.77;;;8.52;;
57643;SDS011;43474;46.510;6.686;2024-02-04T06:49:30;17.75;;;9.27;;
57643;SDS011;43474;46.510;6.686;2024-02-04T06:51:59;13.38;;;6.90;;
57643;SDS011;43474;46.510;6.686;2024-02-04T06:54:25;15.77;;;6.82;;
57643;SDS011;43474;46.510;6.686;2024-02-04T06:56:51;15.45;;;7.30;;
57643;SDS011;43474;46.510;6.686;2024-02-04T06:59:19;14.20;;;8.15;;
57643;SDS011;43474;46.510;6.686;2024-02-04T07:01:44;18.80;;;8.65;;
57643;SDS011;43474;46.510;6.686;2024-02-04T07:04:11;20.10;;;8.68;;
57643;SDS011;43474;46.510;6.686;2024-02-04T07:06:37;20.77;;;10.27;;
57643;SDS011;43474;46.510;6.686;2024-02-04T07:09:03;29.35;;;8.43;;
57643;SDS011;43474;46.510;6.686;2024-02-04T07:11:29;19.58;;;8.88;;
57643;SDS011;43474;46.510;6.686;2024-02-04T07:13:55;13.63;;;7.97;;
57643;SDS011;43474;46.510;6.686;2024-02-04T07:16:25;17.30;;;9.27;;
57643;SDS011;43474;46.510;6.686;2024-02-04T07:18:51;17.17;;;7.53;;
57643;SDS011;43474;46.510;6.686;2024-02-04T07:21:17;22.85;;;8.45;;
57643;SDS011;43474;46.510;6.686;2024-02-04T07:23:43;21.10;;;10.50;;
57643;SDS011;43474;46.510;6.686;2024-02-04T07:26:09;24.30;;;9.52;;
57643;SDS011;43474;46.510;6.686;2024-02-04T07:28:35;15.13;;;7.28;;
57643;SDS011;43474;46.510;6.686;2024-02-04T07:31:01;14.25;;;8.30;;
57643;SDS011;43474;46.510;6.686;2024-02-04T07:33:27;19.25;;;10.18;;
57643;SDS011;43474;46.510;6.686;2024-02-04T07:35:56;19.75;;;9.43;;
57643;SDS011;43474;46.510;6.686;2024-02-04T07:38:22;19.70;;;9.43;;
57643;SDS011;43474;46.510;6.686;2024-02-04T07:40:47;30.05;;;10.35;;
57643;SDS011;43474;46.510;6.686;2024-02-04T07:43:13;22.85;;;9.82;;
57643;SDS011;43474;46.510;6.686;2024-02-04T07:45:39;29.35;;;10.63;;
57643;SDS011;43474;46.510;6.686;2024-02-04T07:48:05;21.35;;;9.50;;
57643;SDS011;43474;46.510;6.686;2024-02-04T07:50:31;16.10;;;8.25;;
57643;SDS011;43474;46.510;6.686;2024-02-04T07:52:57;17.75;;;8.77;;
57643;SDS011;43474;46.510;6.686;2024-02-04T07:55:23;22.70;;;9.07;;
57643;SDS011;43474;46.510;6.686;2024-02-04T07:57:49;16.45;;;6.20;;
57643;SDS011;43474;46.510;6.686;2024-02-04T08:00:14;20.27;;;8.82;;
57643;SDS011;43474;46.510;6.686;2024-02-04T08:02:41;15.98;;;9.13;;
57643;SDS011;43474;46.510;6.686;2024-02-04T08:05:09;31.75;;;9.18;;
57643;SDS011;43474;46.510;6.686;2024-02-04T08:07:35;14.18;;;6.85;;
57643;SDS011;43474;46.510;6.686;2024-02-04T08:10:01;14.55;;;7.32;;
57643;SDS011;43474;46.510;6.686;2024-02-04T08:12:35;15.02;;;6.68;;
57643;SDS011;43474;46.510;6.686;2024-02-04T08:15:01;20.77;;;8.45;;
57643;SDS011;43474;46.510;6.686;2024-02-04T08:17:28;14.20;;;7.20;;
57643;SDS011;43474;46.510;6.686;2024-02-04T08:19:56;17.15;;;6.68;;
57643;SDS011;43474;46.510;6.686;2024-02-04T08:22:23;17.35;;;7.93;;
57643;SDS011;43474;46.510;6.686;2024-02-04T08:24:49;15.20;;;5.50;;
57643;SDS011;43474;46.510;6.686;2024-02-04T08:27:19;24.85;;;8.60;;
57643;SDS011;43474;46.510;6.686;2024-02-04T08:29:45;22.27;;;8.00;;
57643;SDS011;43474;46.510;6.686;2024-02-04T08:32:11;24.27;;;6.95;;
57643;SDS011;43474;46.510;6.686;2024-02-04T08:34:38;22.73;;;8.75;;
57643;SDS011;43474;46.510;6.686;2024-02-04T08:37:04;20.33;;;9.48;;
57643;SDS011;43474;46.510;6.686;2024-02-04T08:39:36;20.80;;;10.13;;
57643;SDS011;43474;46.510;6.686;2024-02-04T08:42:02;25.52;;;11.00;;
57643;SDS011;43474;46.510;6.686;2024-02-04T08:44:32;16.33;;;7.43;;
57643;SDS011;43474;46.510;6.686;2024-02-04T08:47:09;24.73;;;8.55;;
57643;SDS011;43474;46.510;6.686;2024-02-04T08:49:39;16.58;;;8.23;;
57643;SDS011;43474;46.510;6.686;2024-02-04T08:52:05;20.25;;;9.68;;
57643;SDS011;43474;46.510;6.686;2024-02-04T08:54:31;22.40;;;7.68;;
57643;SDS011;43474;46.510;6.686;2024-02-04T08:57:01;15.48;;;8.90;;
57643;SDS011;43474;46.510;6.686;2024-02-04T08:59:27;16.85;;;9.88;;
57643;SDS011;43474;46.510;6.686;2024-02-04T09:01:53;17.08;;;8.60;;
57643;SDS011;43474;46.510;6.686;2024-02-04T09:04:19;26.15;;;9.23;;
57643;SDS011;43474;46.510;6.686;2024-02-04T09:06:46;17.60;;;8.55;;
57643;SDS011;43474;46.510;6.686;2024-02-04T09:09:12;17.02;;;10.55;;
57643;SDS011;43474;46.510;6.686;2024-02-04T09:11:39;25.55;;;12.25;;
57643;SDS011;43474;46.510;6.686;2024-02-04T09:14:05;21.60;;;9.50;;
57643;SDS011;43474;46.510;6.686;2024-02-04T09:16:33;20.73;;;10.18;;
57643;SDS011;43474;46.510;6.686;2024-02-04T09:19:00;21.25;;;9.45;;
57643;SDS011;43474;46.510;6.686;2024-02-04T09:21:28;20.10;;;9.93;;
57643;SDS011;43474;46.510;6.686;2024-02-04T09:23:57;18.52;;;8.75;;
57643;SDS011;43474;46.510;6.686;2024-02-04T09:26:28;16.52;;;8.77;;
57643;SDS011;43474;46.510;6.686;2024-02-04T09:28:54;24.23;;;9.10;;
57643;SDS011;43474;46.510;6.686;2024-02-04T09:31:20;23.85;;;9.65;;
57643;SDS011;43474;46.510;6.686;2024-02-04T09:33:53;27.35;;;9.90;;
57643;SDS011;43474;46.510;6.686;2024-02-04T09:36:20;17.80;;;8.88;;
57643;SDS011;43474;46.510;6.686;2024-02-04T09:38:50;19.40;;;8.75;;
57643;SDS011;43474;46.510;6.686;2024-02-04T09:41:17;16.90;;;9.48;;
57643;SDS011;43474;46.510;6.686;2024-02-04T09:43:44;19.27;;;9.55;;
57643;SDS011;43474;46.510;6.686;2024-02-04T09:46:12;15.98;;;8.65;;
57643;SDS011;43474;46.510;6.686;2024-02-04T09:48:41;13.10;;;7.10;;
57643;SDS011;43474;46.510;6.686;2024-02-04T09:51:10;22.13;;;10.15;;
57643;SDS011;43474;46.510;6.686;2024-02-04T09:53:44;18.77;;;8.70;;
57643;SDS011;43474;46.510;6.686;2024-02-04T09:56:11;22.98;;;9.35;;
57643;SDS011;43474;46.510;6.686;2024-02-04T09:58:39;24.17;;;10.02;;
57643;SDS011;43474;46.510;6.686;2024-02-04T10:01:06;16.08;;;8.63;;
57643;SDS011;43474;46.510;6.686;2024-02-04T10:03:35;18.70;;;9.45;;
57643;SDS011;43474;46.510;6.686;2024-02-04T10:06:01;18.63;;;8.60;;
57643;SDS011;43474;46.510;6.686;2024-02-04T10:08:29;16.00;;;8.48;;
57643;SDS011;43474;46.510;6.686;2024-02-04T10:10:57;17.65;;;8.43;;
57643;SDS011;43474;46.510;6.686;2024-02-04T10:13:24;23.38;;;9.55;;
57643;SDS011;43474;46.510;6.686;2024-02-04T10:15:51;20.35;;;9.35;;
57643;SDS011;43474;46.510;6.686;2024-02-04T10:18:17;21.48;;;9.85;;
57643;SDS011;43474;46.510;6.686;2024-02-04T10:20:44;21.02;;;9.25;;
57643;SDS011;43474;46.510;6.686;2024-02-04T10:23:16;20.27;;;8.95;;
57643;SDS011;43474;46.510;6.686;2024-02-04T10:25:43;15.60;;;7.93;;
57643;SDS011;43474;46.510;6.686;2024-02-04T10:28:11;24.90;;;9.68;;
57643;SDS011;43474;46.510;6.686;2024-02-04T10:30:39;18.05;;;9.77;;
57643;SDS011;43474;46.510;6.686;2024-02-04T10:33:06;18.05;;;9.23;;
57643;SDS011;43474;46.510;6.686;2024-02-04T10:35:32;21.17;;;10.02;;
57643;SDS011;43474;46.510;6.686;2024-02-04T10:38:02;23.17;;;11.02;;
57643;SDS011;43474;46.510;6.686;2024-02-04T10:40:28;18.10;;;8.70;;
57643;SDS011;43474;46.510;6.686;2024-02-04T10:42:55;21.02;;;10.27;;
57643;SDS011;43474;46.510;6.686;2024-02-04T10:45:26;20.15;;;9.68;;
57643;SDS011;43474;46.510;6.686;2024-02-04T10:47:57;19.55;;;8.43;;
57643;SDS011;43474;46.510;6.686;2024-02-04T10:50:27;20.48;;;8.77;;
57643;SDS011;43474;46.510;6.686;2024-02-04T10:53:02;16.67;;;10.15;;
57643;SDS011;43474;46.510;6.686;2024-02-04T10:55:40;18.00;;;9.18;;
57643;SDS011;43474;46.510;6.686;2024-02-04T10:58:10;22.23;;;10.68;;
57643;SDS011;43474;46.510;6.686;2024-02-04T11:00:43;21.25;;;9.75;;
57643;SDS011;43474;46.510;6.686;2024-02-04T11:03:17;25.60;;;10.55;;
57643;SDS011;43474;46.510;6.686;2024-02-04T11:05:44;21.08;;;9.48;;
57643;SDS011;43474;46.510;6.686;2024-02-04T11:08:12;19.90;;;10.15;;
57643;SDS011;43474;46.510;6.686;2024-02-04T11:10:39;21.33;;;9.75;;
57643;SDS011;43474;46.510;6.686;2024-02-04T11:13:05;24.52;;;10.02;;
57643;SDS011;43474;46.510;6.686;2024-02-04T11:15:35;30.33;;;11.35;;
57643;SDS011;43474;46.510;6.686;2024-02-04T11:20:57;28.00;;;10.45;;
57643;SDS011;43474;46.510;6.686;2024-02-04T11:23:51;22.17;;;10.05;;
57643;SDS011;43474;46.510;6.686;2024-02-04T11:26:36;18.53;;;9.80;;
57643;SDS011;43474;46.510;6.686;2024-02-04T11:29:06;27.92;;;10.05;;
57643;SDS011;43474;46.510;6.686;2024-02-04T11:31:38;24.33;;;10.23;;
57643;SDS011;43474;46.510;6.686;2024-02-04T11:34:15;23.80;;;9.30;;
57643;SDS011;43474;46.510;6.686;2024-02-04T11:36:56;23.67;;;9.52;;
57643;SDS011;43474;46.510;6.686;2024-02-04T11:39:47;26.13;;;10.35;;
57643;SDS011;43474;46.510;6.686;2024-02-04T11:46:52;26.00;;;9.55;;
57643;SDS011;43474;46.510;6.686;2024-02-04T11:49:39;24.48;;;10.13;;
57643;SDS011;43474;46.510;6.686;2024-02-04T11:52:08;17.10;;;9.63;;
57643;SDS011;43474;46.510;6.686;2024-02-04T11:55:01;25.55;;;10.10;;
57643;SDS011;43474;46.510;6.686;2024-02-04T11:57:49;24.55;;;10.02;;
57643;SDS011;43474;46.510;6.686;2024-02-04T12:00:58;28.00;;;11.85;;
57643;SDS011;43474;46.510;6.686;2024-02-04T12:03:50;26.95;;;11.88;;
57643;SDS011;43474;46.510;6.686;2024-02-04T12:06:29;34.75;;;12.38;;
57643;SDS011;43474;46.510;6.686;2024-02-04T12:09:01;17.02;;;8.52;;
57643;SDS011;43474;46.510;6.686;2024-02-04T12:11:36;22.35;;;10.10;;
57643;SDS011;43474;46.510;6.686;2024-02-04T12:14:37;26.27;;;11.02;;
57643;SDS011;43474;46.510;6.686;2024-02-04T12:17:20;21.20;;;9.23;;
57643;SDS011;43474;46.510;6.686;2024-02-04T12:20:00;26.55;;;12.18;;
57643;SDS011;43474;46.510;6.686;2024-02-04T12:22:40;30.35;;;10.35;;
57643;SDS011;43474;46.510;6.686;2024-02-04T12:44:17;25.52;;;10.13;;
57643;SDS011;43474;46.510;6.686;2024-02-04T12:46:55;20.48;;;10.27;;
57643;SDS011;43474;46.510;6.686;2024-02-04T12:49:24;25.77;;;10.07;;
57643;SDS011;43474;46.510;6.686;2024-02-04T12:52:03;23.92;;;10.00;;
57643;SDS011;43474;46.510;6.686;2024-02-04T12:54:43;25.05;;;10.45;;
57643;SDS011;43474;46.510;6.686;2024-02-04T12:57:10;24.73;;;11.00;;
57643;SDS011;43474;46.510;6.686;2024-02-04T12:59:49;23.00;;;9.70;;
57643;SDS011;43474;46.510;6.686;2024-02-04T13:02:16;24.42;;;10.32;;
57643;SDS011;43474;46.510;6.686;2024-02-04T13:04:45;21.52;;;10.00;;
57643;SDS011;43474;46.510;6.686;2024-02-04T13:07:14;21.63;;;9.52;;
57643;SDS011;43474;46.510;6.686;2024-02-04T13:09:43;20.60;;;8.70;;
57643;SDS011;43474;46.510;6.686;2024-02-04T13:12:22;20.20;;;8.82;;
57643;SDS011;43474;46.510;6.686;2024-02-04T13:14:48;22.38;;;8.93;;
57643;SDS011;43474;46.510;6.686;2024-02-04T13:17:14;24.02;;;10.32;;
57643;SDS011;43474;46.510;6.686;2024-02-04T13:19:40;22.60;;;8.80;;
57643;SDS011;43474;46.510;6.686;2024-02-04T13:22:07;16.65;;;6.78;;
57643;SDS011;43474;46.510;6.686;2024-02-04T13:24:36;17.20;;;7.60;;
57643;SDS011;43474;46.510;6.686;2024-02-04T13:27:02;20.50;;;9.13;;
57643;SDS011;43474;46.510;6.686;2024-02-04T13:29:32;17.45;;;8.00;;
57643;SDS011;43474;46.510;6.686;2024-02-04T13:31:57;17.92;;;8.50;;
57643;SDS011;43474;46.510;6.686;2024-02-04T13:34:23;17.85;;;8.55;;
57643;SDS011;43474;46.510;6.686;2024-02-04T13:36:49;22.08;;;9.18;;
57643;SDS011;43474;46.510;6.686;2024-02-04T13:39:16;20.17;;;9.38;;
57643;SDS011;43474;46.510;6.686;2024-02-04T13:41:43;20.13;;;8.40;;
57643;SDS011;43474;46.510;6.686;2024-02-04T13:44:10;14.60;;;7.35;;
57643;SDS011;43474;46.510;6.686;2024-02-04T13:46:35;15.95;;;8.63;;
57643;SDS011;43474;46.510;6.686;2024-02-04T13:49:02;19.63;;;7.35;;
57643;SDS011;43474;46.510;6.686;2024-02-04T13:51:28;15.95;;;8.27;;
57643;SDS011;43474;46.510;6.686;2024-02-04T13:53:54;18.85;;;9.23;;
57643;SDS011;43474;46.510;6.686;2024-02-04T13:56:20;12.45;;;6.47;;
57643;SDS011;43474;46.510;6.686;2024-02-04T13:58:46;15.38;;;6.82;;
57643;SDS011;43474;46.510;6.686;2024-02-04T14:01:12;17.58;;;9.15;;
57643;SDS011;43474;46.510;6.686;2024-02-04T14:03:39;19.25;;;9.68;;
57643;SDS011;43474;46.510;6.686;2024-02-04T14:06:04;19.08;;;9.40;;
57643;SDS011;43474;46.510;6.686;2024-02-04T14:08:30;18.13;;;8.30;;
57643;SDS011;43474;46.510;6.686;2024-02-04T14:10:56;22.48;;;9.02;;
57643;SDS011;43474;46.510;6.686;2024-02-04T14:13:23;20.38;;;9.13;;
57643;SDS011;43474;46.510;6.686;2024-02-04T14:15:48;17.63;;;8.75;;
57643;SDS011;43474;46.510;6.686;2024-02-04T14:18:14;22.13;;;8.60;;
57643;SDS011;43474;46.510;6.686;2024-02-04T14:20:40;19.45;;;9.55;;
57643;SDS011;43474;46.510;6.686;2024-02-04T14:23:06;18.77;;;9.38;;
57643;SDS011;43474;46.510;6.686;2024-02-04T14:25:34;18.02;;;8.77;;
57643;SDS011;43474;46.510;6.686;2024-02-04T14:28:00;24.15;;;8.88;;
57643;SDS011;43474;46.510;6.686;2024-02-04T14:30:29;20.15;;;8.70;;
57643;SDS011;43474;46.510;6.686;2024-02-04T14:32:55;20.15;;;8.98;;
57643;SDS011;43474;46.510;6.686;2024-02-04T14:35:22;19.65;;;8.05;;
57643;SDS011;43474;46.510;6.686;2024-02-04T14:37:48;18.75;;;8.48;;
57643;SDS011;43474;46.510;6.686;2024-02-04T14:40:14;18.40;;;9.45;;
57643;SDS011;43474;46.510;6.686;2024-02-04T14:42:40;17.42;;;9.15;;
57643;SDS011;43474;46.510;6.686;2024-02-04T14:45:06;25.33;;;8.45;;
57643;SDS011;43474;46.510;6.686;2024-02-04T14:47:33;15.35;;;6.43;;
57643;SDS011;43474;46.510;6.686;2024-02-04T14:49:58;21.73;;;8.27;;
57643;SDS011;43474;46.510;6.686;2024-02-04T14:52:24;16.38;;;7.68;;
57643;SDS011;43474;46.510;6.686;2024-02-04T14:54:50;13.05;;;6.43;;
57643;SDS011;43474;46.510;6.686;2024-02-04T14:57:16;14.98;;;6.82;;
57643;SDS011;43474;46.510;6.686;2024-02-04T14:59:43;17.15;;;7.45;;
57643;SDS011;43474;46.510;6.686;2024-02-04T15:02:10;16.00;;;7.22;;
57643;SDS011;43474;46.510;6.686;2024-02-04T15:04:35;14.30;;;6.35;;
57643;SDS011;43474;46.510;6.686;2024-02-04T15:07:01;13.82;;;6.15;;
57643;SDS011;43474;46.510;6.686;2024-02-04T15:09:33;14.73;;;6.95;;
57643;SDS011;43474;46.510;6.686;2024-02-04T15:12:00;11.57;;;6.32;;
57643;SDS011;43474;46.510;6.686;2024-02-04T15:14:26;11.45;;;5.40;;
57643;SDS011;43474;46.510;6.686;2024-02-04T15:16:53;16.00;;;6.65;;